Time;durP1;ratioP1;P1;durP2;ratioP2;P2;SDS_P1;SDS_P2;PMS_P1;PMS_P2;Temp;Humidity;BMP_temperature;BMP_pressure;BME280_temperature;BME280_humidity;BME280_pressure;Samples;Min_cycle;Max_cycle;Signal;HPM_P1;HPM_P2
2022/01/06 00:01:23;;;;;;;1.83;0.70;;;;;;;2.25;87.69;101480.53;5054603;28;20029;-85
2022/01/06 00:03:48;;;;;;;2.70;0.90;;;;;;;2.21;87.90;101480.41;5053975;28;20037;-84
2022/01/06 00:06:13;;;;;;;1.50;0.70;;;;;;;2.19;88.09;101490.59;5054250;28;20461;-84
2022/01/06 00:08:40;;;;;;;2.45;0.95;;;;;;;2.15;88.12;101487.09;5054016;28;20056;-85
2022/01/06 00:11:20;;;;;;;1.52;0.88;;;;;;;2.16;88.03;101496.53;5053907;28;20532;-84
2022/01/06 00:16:28;;;;;;;2.03;0.65;;;;;;;2.07;87.43;101498.81;5054457;28;20039;-84
2022/01/06 00:24:19;;;;;;;1.23;0.82;;;;;;;2.05;87.76;101495.31;5054733;28;20079;-85
2022/01/06 00:26:45;;;;;;;1.08;0.82;;;;;;;2.03;87.83;101496.97;5053311;28;20413;-84
2022/01/06 00:29:11;;;;;;;0.60;0.57;;;;;;;1.96;87.70;101501.03;5054247;28;20087;-84
2022/01/06 00:31:36;;;;;;;1.88;0.70;;;;;;;1.95;87.81;101493.31;5054572;28;20029;-84
2022/01/06 00:34:02;;;;;;;1.50;0.98;;;;;;;1.97;87.68;101497.66;5053128;28;20078;-84
2022/01/06 00:36:28;;;;;;;1.17;0.60;;;;;;;1.93;87.76;101500.06;5054133;28;20029;-84
2022/01/06 00:38:53;;;;;;;1.98;0.88;;;;;;;1.95;87.77;101506.13;5053765;28;20021;-84
2022/01/06 00:41:19;;;;;;;1.35;0.90;;;;;;;1.92;87.74;101513.69;5053288;28;20032;-84
2022/01/06 00:43:44;;;;;;;2.17;0.85;;;;;;;1.88;87.92;101515.28;5053201;28;20032;-84
2022/01/06 00:46:10;;;;;;;3.33;1.05;;;;;;;1.87;87.84;101521.22;5053264;28;20025;-84
2022/01/06 00:48:35;;;;;;;2.72;1.10;;;;;;;1.86;87.99;101522.03;5053853;28;20040;-84
2022/01/06 00:51:00;;;;;;;1.13;0.98;;;;;;;1.80;87.83;101514.19;5053647;28;20071;-84
2022/01/06 00:53:25;;;;;;;1.30;0.93;;;;;;;1.79;87.60;101523.53;5052777;28;20348;-84
2022/01/06 00:55:51;;;;;;;1.90;0.93;;;;;;;1.77;87.78;101524.31;5053348;28;20378;-84
2022/01/06 00:58:16;;;;;;;1.83;0.88;;;;;;;1.76;87.97;101525.13;5053947;28;20084;-84
2022/01/06 01:00:42;;;;;;;2.45;1.00;;;;;;;1.76;87.63;101528.56;5052541;28;20025;-84
2022/01/06 01:03:29;;;;;;;2.40;1.10;;;;;;;1.75;87.85;101519.13;5053358;28;20025;-84
2022/01/06 01:06:01;;;;;;;2.42;0.90;;;;;;;1.70;88.09;101508.75;5053410;28;20033;-84
2022/01/06 01:08:32;;;;;;;1.55;0.90;;;;;;;1.68;88.12;101514.66;5052726;28;20025;-84
2022/01/06 01:10:58;;;;;;;2.63;1.20;;;;;;;1.70;87.89;101524.09;5053067;28;20112;-84
2022/01/06 01:13:31;;;;;;;2.75;1.05;;;;;;;1.68;88.62;101524.88;5053242;28;20083;-84
2022/01/06 01:16:05;;;;;;;3.47;1.25;;;;;;;1.72;88.17;101531.84;5052344;28;20021;-84
2022/01/06 01:18:30;;;;;;;1.45;0.80;;;;;;;1.70;87.79;101525.81;5053375;28;20072;-84
2022/01/06 01:20:56;;;;;;;2.30;1.23;;;;;;;1.67;87.85;101518.03;5052886;28;20477;-84
2022/01/06 01:23:21;;;;;;;1.17;1.00;;;;;;;1.73;88.00;101532.72;5052398;28;20056;-84
2022/01/06 01:25:59;;;;;;;1.75;1.00;;;;;;;1.62;87.82;101512.75;5052939;28;20519;-84
2022/01/06 01:28:43;;;;;;;1.63;0.95;;;;;;;1.63;87.57;101529.84;5052463;28;20124;-84
2022/01/06 01:31:30;;;;;;;1.80;0.80;;;;;;;1.64;87.98;101529.03;5053106;28;20031;-83
2022/01/06 01:34:12;;;;;;;2.20;0.88;;;;;;;1.58;87.91;101526.25;5047343;28;20033;-84
2022/01/06 01:36:38;;;;;;;1.27;1.10;;;;;;;1.56;87.75;101538.16;5052446;28;20028;-84
2022/01/06 01:39:05;;;;;;;1.35;1.02;;;;;;;1.55;87.73;101538.97;5053077;28;20094;-84
2022/01/06 01:41:33;;;;;;;2.15;0.93;;;;;;;1.52;87.99;101538.88;5052593;28;20086;-84
2022/01/06 01:43:58;;;;;;;1.52;0.98;;;;;;;1.51;87.82;101542.25;5052235;28;20124;-84
2022/01/06 01:46:30;;;;;;;1.45;0.80;;;;;;;1.50;87.89;101543.94;5053132;28;20112;-84
2022/01/06 01:49:50;;;;;;;2.25;1.00;;;;;;;1.53;88.13;101555.97;5052748;28;20389;-84
2022/01/06 01:51:51;;;;;;;3.13;1.08;;;;;;;1.50;87.54;101560.97;5044254;28;20037;-84
2022/01/06 01:54:17;;;;;;;1.98;1.02;;;;;;;1.45;87.90;101563.38;5052727;28;20057;-84
2022/01/06 01:56:44;;;;;;;1.85;0.90;;;;;;;1.43;87.46;101572.69;5051357;28;20059;-84
2022/01/06 01:59:10;;;;;;;2.85;1.30;;;;;;;1.45;87.65;101582.97;5052597;28;20025;-84
2022/01/06 02:01:36;;;;;;;2.83;1.30;;;;;;;1.37;87.99;101581.00;5052614;28;20053;-84
2022/01/06 02:04:10;;;;;;;2.25;1.08;;;;;;;1.38;87.82;101582.75;5051735;28;20052;-84
2022/01/06 02:06:39;;;;;;;3.33;1.40;;;;;;;1.33;87.76;101581.75;5052242;28;20017;-84
2022/01/06 02:09:13;;;;;;;2.20;1.10;;;;;;;1.34;87.72;101590.28;5052386;28;20029;-84
2022/01/06 02:11:39;;;;;;;1.45;0.85;;;;;;;1.31;87.90;101587.59;5051806;28;20029;-84
2022/01/06 02:14:16;;;;;;;1.70;0.80;;;;;;;1.25;87.76;101575.47;5052647;28;20071;-84
2022/01/06 02:16:42;;;;;;;1.98;1.13;;;;;;;1.29;87.56;101595.22;5052387;28;20025;-84
2022/01/06 02:19:07;;;;;;;2.10;0.80;;;;;;;1.21;87.52;101587.28;5051636;28;20048;-84
2022/01/06 02:21:37;;;;;;;2.42;1.10;;;;;;;1.23;87.52;101598.44;5052481;28;20029;-84
2022/01/06 02:24:03;;;;;;;1.60;1.05;;;;;;;1.18;87.51;101592.28;5052382;28;20060;-84
2022/01/06 02:26:28;;;;;;;1.80;0.90;;;;;;;1.15;87.75;101594.75;5051929;28;20052;-84
2022/01/06 02:28:53;;;;;;;3.72;1.23;;;;;;;1.13;87.41;101593.81;5052522;28;20028;-84
2022/01/06 02:31:20;;;;;;;1.58;1.10;;;;;;;1.08;87.78;101592.78;5052194;28;20025;-84
2022/01/06 02:33:46;;;;;;;3.83;1.45;;;;;;;1.05;87.72;101587.56;5051468;28;20021;-84
2022/01/06 02:36:12;;;;;;;1.20;1.10;;;;;;;1.03;87.49;101600.28;5052553;28;20040;-84
2022/01/06 02:38:37;;;;;;;2.25;1.00;;;;;;;1.03;87.90;101595.16;5052027;28;20025;-84
2022/01/06 02:41:02;;;;;;;1.33;1.00;;;;;;;1.01;87.65;101599.38;5052111;28;20021;-84
2022/01/06 02:43:29;;;;;;;1.63;0.93;;;;;;;0.98;87.89;101585.59;5052187;28;20044;-84
2022/01/06 02:45:55;;;;;;;;;;;;;;;1.04;87.86;101601.16;5052050;28;20098;-84
2022/01/06 02:48:30;;;;;;;1.70;1.20;;;;;;;0.97;87.79;101587.28;5043862;28;19963;-84
2022/01/06 02:50:58;;;;;;;3.20;1.33;;;;;;;0.94;87.35;101581.19;5052039;28;20016;-84
2022/01/06 02:53:24;;;;;;;3.28;1.15;;;;;;;0.88;87.25;101581.84;5051808;28;20029;-84
2022/01/06 02:55:54;;;;;;;3.65;1.17;;;;;;;0.87;87.58;101580.97;5051444;28;20044;-84
2022/01/06 02:58:24;;;;;;;2.65;1.05;;;;;;;0.85;87.86;101591.94;5052506;28;20053;-84
2022/01/06 03:00:50;;;;;;;2.08;0.93;;;;;;;0.84;87.68;101598.75;5050853;28;20060;-84
2022/01/06 03:03:16;;;;;;;3.50;1.10;;;;;;;0.83;87.33;101603.78;5052254;28;20028;-84
2022/01/06 03:05:41;;;;;;;1.38;0.88;;;;;;;0.77;87.40;101600.22;5052093;28;20029;-84
2022/01/06 03:08:06;;;;;;;1.45;1.13;;;;;;;0.73;87.27;101592.38;5050689;28;20500;-84
2022/01/06 03:10:36;;;;;;;1.90;0.80;;;;;;;0.71;87.64;101596.56;5051832;28;20032;-84
2022/01/06 03:13:01;;;;;;;1.10;0.77;;;;;;;0.69;87.29;101590.53;5051810;28;20027;-84
2022/01/06 03:15:27;;;;;;;1.35;0.98;;;;;;;0.72;87.48;101601.72;5051432;28;20092;-84
2022/01/06 03:17:56;;;;;;;1.98;1.00;;;;;;;0.68;87.40;101602.41;5051680;28;20045;-84
2022/01/06 03:20:23;;;;;;;0.80;0.80;;;;;;;0.69;87.65;101621.19;5055798;28;20033;-84
2022/01/06 03:22:49;;;;;;;2.88;1.00;;;;;;;0.62;87.73;101620.06;5054607;28;20369;-84
2022/01/06 03:25:15;;;;;;;3.03;1.10;;;;;;;0.60;87.09;101616.59;5055520;28;20037;-84
2022/01/06 03:27:41;;;;;;;2.10;1.08;;;;;;;0.59;87.37;101618.28;5054942;28;20025;-83
2022/01/06 03:30:10;;;;;;;1.95;0.90;;;;;;;0.64;87.71;101631.22;5054022;28;20033;-84
2022/01/06 03:32:36;;;;;;;2.92;1.13;;;;;;;0.61;87.85;101624.31;5055085;28;20528;-84
2022/01/06 03:35:03;;;;;;;1.48;0.98;;;;;;;0.63;87.72;101639.69;5054356;28;20029;-84
2022/01/06 03:37:28;;;;;;;1.00;0.82;;;;;;;0.60;87.51;101635.34;5055228;28;20021;-83
2022/01/06 03:39:53;;;;;;;1.92;0.95;;;;;;;0.59;87.41;101638.72;5054902;28;20027;-84
2022/01/06 03:42:19;;;;;;;1.52;1.00;;;;;;;0.59;87.59;101640.38;5054100;28;20071;-84
2022/01/06 03:44:44;;;;;;;3.33;1.13;;;;;;;0.57;87.60;101639.44;5054916;28;20025;-84
2022/01/06 03:47:15;;;;;;;3.05;1.17;;;;;;;0.57;87.71;101637.78;5054876;28;20033;-84
2022/01/06 03:49:46;;;;;;;1.63;0.90;;;;;;;0.57;87.77;101631.78;5053850;28;20037;-83
2022/01/06 03:52:11;;;;;;;3.45;1.10;;;;;;;0.62;88.19;101627.75;5055003;28;20082;-83
2022/01/06 03:54:39;;;;;;;2.53;1.00;;;;;;;0.64;88.50;101623.56;5054828;28;20115;-84
2022/01/06 03:57:05;;;;;;;2.05;1.00;;;;;;;0.68;88.49;101627.94;5053561;28;20025;-83
2022/01/06 03:59:36;;;;;;;1.90;1.05;;;;;;;0.71;88.52;101625.53;5051570;28;20428;-83
2022/01/06 04:02:07;;;;;;;0.60;0.60;;;;;;;0.75;88.22;101623.94;5054620;28;20032;-83
2022/01/06 04:04:32;;;;;;;0.95;0.80;;;;;;;0.80;88.55;101624.13;5053762;28;20065;-84
2022/01/06 04:06:57;;;;;;;1.00;0.73;;;;;;;0.86;88.29;101624.38;5054670;28;20064;-84
2022/01/06 04:09:23;;;;;;;1.75;0.77;;;;;;;0.84;88.31;101616.66;5054681;28;20028;-83
2022/01/06 04:11:48;;;;;;;0.55;0.55;;;;;;;0.92;88.43;101629.69;5053325;28;20098;-83
2022/01/06 04:14:14;;;;;;;0.85;0.80;;;;;;;0.90;87.96;101618.56;5054418;28;20021;-83
2022/01/06 04:16:50;;;;;;;;;;;;;;;;;;;;;
2022/01/06 04:19:15;;;;;;;0.73;0.68;;;;;;;0.94;87.95;101630.63;5053583;28;20098;-84
2022/01/06 04:21:40;;;;;;;0.50;0.50;;;;;;;0.91;87.98;101641.63;5054160;28;20108;-84
2022/01/06 04:24:06;;;;;;;0.98;0.73;;;;;;;0.87;87.63;101638.88;5053796;28;20025;-83
2022/01/06 04:26:31;;;;;;;1.52;0.90;;;;;;;0.91;87.63;101658.63;5053822;28;20497;-83
2022/01/06 04:28:56;;;;;;;1.88;0.90;;;;;;;0.90;87.60;101659.47;5053116;28;20025;-83
2022/01/06 04:31:22;;;;;;;0.90;0.57;;;;;;;0.84;87.66;101656.66;5053754;28;20040;-84
2022/01/06 04:33:53;;;;;;;0.95;0.70;;;;;;;0.82;87.77;101654.06;5053208;28;20064;-84
2022/01/06 04:36:30;;;;;;;0.70;0.70;;;;;;;0.78;87.42;101654.75;5054423;28;20021;-83
2022/01/06 04:38:55;;;;;;;1.88;0.70;;;;;;;0.80;87.78;101655.69;5053153;28;20086;-84
2022/01/06 04:41:21;;;;;;;2.53;0.80;;;;;;;0.76;87.38;101656.34;5053756;28;20021;-83
2022/01/06 04:43:46;;;;;;;0.73;0.60;;;;;;;0.76;87.42;101667.47;5053307;28;20033;-83
2022/01/06 04:46:13;;;;;;;1.10;0.75;;;;;;;0.75;87.45;101660.63;5052648;28;20078;-83
2022/01/06 04:48:38;;;;;;;3.95;1.00;;;;;;;0.73;87.70;101672.44;5053894;28;20032;-83
2022/01/06 04:51:04;;;;;;;2.15;0.70;;;;;;;0.69;87.67;101662.06;5053736;28;20029;-83
2022/01/06 04:53:30;;;;;;;2.55;0.80;;;;;;;0.70;87.82;101680.00;5052872;28;20074;-83
2022/01/06 04:55:57;;;;;;;1.58;0.95;;;;;;;0.67;87.48;101679.00;5053154;28;20449;-83
2022/01/06 04:58:32;;;;;;;1.80;1.00;;;;;;;0.59;87.73;101666.81;5053708;28;20033;-83
2022/01/06 05:00:58;;;;;;;2.15;1.08;;;;;;;0.63;87.43;101674.56;5052732;28;20386;-83
2022/01/06 05:03:23;;;;;;;1.38;0.80;;;;;;;0.60;87.52;101680.44;5053221;28;20123;-83
2022/01/06 05:05:48;;;;;;;1.95;0.80;;;;;;;0.56;87.90;101683.72;5053282;28;20462;-83
2022/01/06 05:08:13;;;;;;;2.15;0.82;;;;;;;0.55;87.64;101681.97;5053104;28;20048;-83
2022/01/06 05:10:39;;;;;;;1.52;1.02;;;;;;;0.53;87.78;101688.69;5053178;28;20436;-83
2022/01/06 05:13:04;;;;;;;1.30;0.90;;;;;;;0.55;87.74;101693.03;5053269;28;20032;-83
2022/01/06 05:15:39;;;;;;;2.13;0.93;;;;;;;0.54;87.27;101690.44;5052574;28;20025;-83
2022/01/06 05:18:04;;;;;;;1.40;0.93;;;;;;;0.55;87.70;101694.75;5052874;28;20611;-83
2022/01/06 05:20:30;;;;;;;1.80;0.90;;;;;;;0.55;87.15;101697.28;5052154;28;20073;-82
2022/01/06 05:22:57;;;;;;;2.90;1.02;;;;;;;0.53;87.62;101699.75;5053114;28;20025;-83
2022/01/06 05:25:27;;;;;;;2.03;0.85;;;;;;;0.49;87.52;101702.13;5053174;28;20029;-83
2022/01/06 05:27:53;;;;;;;0.98;0.82;;;;;;;0.48;87.07;101696.19;5052449;28;20029;-83
2022/01/06 05:30:19;;;;;;;2.77;0.97;;;;;;;0.46;87.41;101713.13;5053114;28;20033;-83
2022/01/06 05:32:44;;;;;;;2.53;1.08;;;;;;;0.43;87.39;101706.22;5052647;28;20370;-82
2022/01/06 05:35:10;;;;;;;2.13;0.90;;;;;;;0.41;87.70;101705.28;5052166;28;20078;-82
2022/01/06 05:37:35;;;;;;;2.33;1.13;;;;;;;0.42;87.73;101716.34;5052743;28;20059;-82
2022/01/06 05:40:01;;;;;;;1.33;0.90;;;;;;;0.39;87.41;101717.09;5052285;28;20044;-82
2022/01/06 05:42:26;;;;;;;3.13;1.00;;;;;;;0.33;87.50;101716.88;5051729;28;20028;-82
2022/01/06 05:45:07;;;;;;;2.17;0.95;;;;;;;0.30;87.40;101717.59;5052603;28;20079;-82
2022/01/06 05:47:32;;;;;;;1.73;0.80;;;;;;;0.34;87.48;101731.34;5052735;28;20033;-83
2022/01/06 05:49:58;;;;;;;1.98;1.00;;;;;;;0.28;87.40;101720.91;5052013;28;20025;-82
2022/01/06 05:52:23;;;;;;;3.38;1.30;;;;;;;0.28;87.40;101726.88;5052721;28;20021;-82
2022/01/06 05:54:58;;;;;;;2.45;1.00;;;;;;;0.25;87.55;101730.97;5051926;28;20029;-82
2022/01/06 05:57:23;;;;;;;1.65;0.90;;;;;;;0.23;87.25;101728.38;5052285;28;20032;-83
2022/01/06 05:59:48;;;;;;;2.63;1.10;;;;;;;0.18;87.49;101726.44;5052429;28;20021;-82
2022/01/06 06:02:13;;;;;;;2.47;0.90;;;;;;;0.17;87.37;101742.56;5052747;28;20080;-83
2022/01/06 06:04:39;;;;;;;2.03;1.00;;;;;;;0.08;87.48;101730.28;5051494;28;20025;-83
2022/01/06 06:07:04;;;;;;;2.80;1.00;;;;;;;0.09;87.30;101737.13;5052774;28;20025;-82
2022/01/06 06:09:29;;;;;;;3.95;1.23;;;;;;;0.07;87.24;101741.28;5052688;28;20063;-83
2022/01/06 06:11:54;;;;;;;4.57;1.15;;;;;;;0.05;87.48;101746.34;5051422;28;20028;-82
2022/01/06 06:14:20;;;;;;;1.88;0.90;;;;;;;0.04;87.66;101747.16;5052457;28;20031;-83
2022/01/06 06:16:46;;;;;;;2.38;1.23;;;;;;;-0.02;87.35;101747.75;5051071;28;20021;-83
2022/01/06 06:19:11;;;;;;;2.85;1.05;;;;;;;-0.05;87.40;101754.41;5052331;28;20041;-83
2022/01/06 06:21:36;;;;;;;3.22;1.25;;;;;;;-0.08;87.18;101759.38;5052325;28;20039;-82
2022/01/06 06:24:03;;;;;;;2.22;1.00;;;;;;;-0.10;86.88;101760.97;5051076;28;20051;-83
2022/01/06 06:26:28;;;;;;;1.73;1.13;;;;;;;-0.12;87.27;101763.47;5052682;28;20021;-83
2022/01/06 06:28:56;;;;;;;1.23;0.80;;;;;;;-0.14;87.32;101769.34;5052448;28;20056;-83
2022/01/06 06:31:21;;;;;;;1.83;0.90;;;;;;;-0.16;87.80;101765.03;5051715;28;20032;-83
2022/01/06 06:33:47;;;;;;;2.08;1.10;;;;;;;-0.17;87.11;101775.19;5051901;28;20025;-83
2022/01/06 06:36:12;;;;;;;1.63;1.02;;;;;;;-0.23;87.01;101773.25;5052223;28;20354;-83
2022/01/06 06:38:37;;;;;;;2.50;1.10;;;;;;;-0.20;87.71;101780.16;5051763;28;20381;-82
2022/01/06 06:41:02;;;;;;;2.05;0.70;;;;;;;-0.19;87.36;101785.31;5052261;28;20029;-83
2022/01/06 06:43:28;;;;;;;3.92;1.10;;;;;;;-0.25;87.62;101768.84;5051997;28;20167;-83
2022/01/06 06:45:53;;;;;;;1.50;0.93;;;;;;;-0.24;87.52;101785.91;5051328;28;20056;-83
2022/01/06 06:48:19;;;;;;;1.95;0.98;;;;;;;-0.26;87.20;101783.28;5052564;28;20534;-83
2022/01/06 06:50:44;;;;;;;1.10;0.80;;;;;;;-0.28;87.32;101784.91;5052316;28;20420;-83
2022/01/06 06:53:09;;;;;;;2.85;1.10;;;;;;;-0.28;87.64;101786.59;5054471;28;20393;-81
2022/01/06 06:55:35;;;;;;;1.25;0.85;;;;;;;-0.28;87.20;101791.69;5055838;28;20059;-83
2022/01/06 06:58:01;;;;;;;1.70;1.00;;;;;;;-0.30;87.44;101798.41;5055555;28;20024;-81
2022/01/06 07:00:27;;;;;;;2.23;1.20;;;;;;;-0.33;87.64;101799.13;5055368;28;20017;-81
2022/01/06 07:02:52;;;;;;;1.52;0.82;;;;;;;-0.33;87.69;101804.22;5055633;28;20087;-82
2022/01/06 07:05:17;;;;;;;1.85;1.13;;;;;;;-0.34;87.72;101807.59;5055756;28;20029;-79
2022/01/06 07:07:43;;;;;;;2.00;1.13;;;;;;;-0.35;87.81;101804.16;5054879;28;20056;-80
2022/01/06 07:10:12;;;;;;;3.33;1.08;;;;;;;-0.37;87.29;101808.31;5056055;28;20027;-79
2022/01/06 07:12:42;;;;;;;1.85;1.00;;;;;;;-0.37;87.51;101808.31;5055557;28;20531;-80
2022/01/06 07:15:09;;;;;;;1.17;1.02;;;;;;;-0.35;87.60;101810.94;5054929;28;20024;-80
2022/01/06 07:17:35;;;;;;;2.22;1.20;;;;;;;-0.36;87.52;101820.25;5055522;28;20099;-80
2022/01/06 07:20:00;;;;;;;1.20;1.10;;;;;;;-0.36;87.39;101825.38;5054126;28;20420;-80
2022/01/06 07:22:25;;;;;;;1.52;1.30;;;;;;;-0.35;87.35;101833.91;5055196;28;20033;-80
2022/01/06 07:24:50;;;;;;;1.05;1.02;;;;;;;-0.36;87.34;101832.16;5055553;28;20466;-80
2022/01/06 07:27:16;;;;;;;2.90;1.17;;;;;;;-0.36;87.81;101832.16;5054891;28;20531;-80
2022/01/06 07:29:41;;;;;;;1.40;1.00;;;;;;;-0.38;87.68;101836.31;5055237;28;20029;-80
2022/01/06 07:32:06;;;;;;;1.60;1.10;;;;;;;-0.39;87.61;101834.56;5055489;28;20041;-79
2022/01/06 07:34:32;;;;;;;1.80;1.10;;;;;;;-0.40;87.73;101838.81;5054686;28;20032;-80
2022/01/06 07:36:57;;;;;;;1.05;0.90;;;;;;;-0.39;87.78;101843.06;5054777;28;20437;-80
2022/01/06 07:39:22;;;;;;;2.05;1.10;;;;;;;-0.39;87.38;101837.97;5055245;28;20025;-80
2022/01/06 07:41:48;;;;;;;1.42;1.17;;;;;;;-0.39;87.28;101844.75;5054161;28;20104;-79
2022/01/06 07:44:13;;;;;;;2.70;1.27;;;;;;;-0.44;87.38;101834.34;5054926;28;20033;-79
2022/01/06 07:46:40;;;;;;;1.30;1.20;;;;;;;-0.42;87.33;101842.97;5055128;28;20017;-79
2022/01/06 07:49:05;;;;;;;2.22;1.30;;;;;;;-0.42;87.40;101834.41;5054354;28;20029;-80
2022/01/06 07:51:31;;;;;;;1.30;1.00;;;;;;;-0.41;87.67;101841.25;5055259;28;20036;-79
2022/01/06 07:53:58;;;;;;;1.13;1.00;;;;;;;-0.42;87.78;101842.06;5054868;28;20021;-79
2022/01/06 07:56:24;;;;;;;2.78;1.60;;;;;;;-0.40;87.55;101843.91;5053990;28;20029;-81
2022/01/06 07:58:49;;;;;;;2.65;1.50;;;;;;;-0.41;87.36;101846.38;5054634;28;20044;-81
2022/01/06 08:01:16;;;;;;;1.58;1.30;;;;;;;-0.41;87.41;101847.25;5054881;28;20037;-80
2022/01/06 08:03:41;;;;;;;2.25;1.40;;;;;;;-0.42;87.61;101850.59;5052335;28;20028;-79
2022/01/06 08:06:07;;;;;;;1.77;1.30;;;;;;;-0.45;87.74;101852.16;5054905;28;20025;-77
2022/01/06 08:08:33;;;;;;;2.55;1.40;;;;;;;-0.48;87.44;101847.75;5054853;28;20028;-83
2022/01/06 08:10:58;;;;;;;2.10;1.50;;;;;;;-0.50;87.56;101857.00;5053768;28;20024;-83
2022/01/06 08:13:23;;;;;;;1.50;1.35;;;;;;;-0.52;87.54;101856.94;5054409;28;20385;-82
2022/01/06 08:15:49;;;;;;;2.13;1.30;;;;;;;-0.55;87.80;101851.69;5054344;28;20025;-83
2022/01/06 08:18:14;;;;;;;1.23;1.10;;;;;;;-0.54;87.45;101860.25;5053714;28;20132;-83
2022/01/06 08:20:40;;;;;;;2.08;1.20;;;;;;;-0.51;87.65;101865.50;5054287;28;20067;-83
2022/01/06 08:23:06;;;;;;;1.92;1.27;;;;;;;-0.51;87.90;101862.94;5054583;28;20032;-83
2022/01/06 08:25:32;;;;;;;1.20;1.10;;;;;;;-0.52;87.61;101862.03;5053841;28;20072;-83
2022/01/06 08:27:58;;;;;;;3.00;1.20;;;;;;;-0.49;87.96;101864.75;5054059;28;20029;-83
2022/01/06 08:30:23;;;;;;;2.22;1.40;;;;;;;-0.51;87.73;101855.28;5053429;28;20481;-82
2022/01/06 08:32:49;;;;;;;1.77;1.10;;;;;;;-0.44;87.48;101866.63;5053915;28;20029;-83
2022/01/06 08:35:14;;;;;;;2.85;1.10;;;;;;;-0.40;87.62;101869.41;5054543;28;20143;-82
2022/01/06 08:37:43;;;;;;;1.58;1.17;;;;;;;-0.38;87.55;101859.28;5053462;28;20017;-83
2022/01/06 08:40:20;;;;;;;2.00;1.15;;;;;;;-0.37;88.06;101858.47;5049900;28;20036;-81
2022/01/06 08:42:46;;;;;;;1.48;1.20;;;;;;;-0.34;87.82;101866.28;5053791;28;20048;-82
2022/01/06 08:45:12;;;;;;;2.28;1.48;;;;;;;-0.33;88.01;101866.31;5052919;28;20087;-82
2022/01/06 08:47:38;;;;;;;2.42;1.20;;;;;;;-0.25;87.93;101879.44;5053738;28;20587;-80
2022/01/06 08:50:04;;;;;;;1.48;1.20;;;;;;;-0.20;87.94;101872.84;5053831;28;20116;-80
2022/01/06 08:52:29;;;;;;;3.70;1.55;;;;;;;-0.19;88.48;101872.06;5053342;28;20120;-81
2022/01/06 08:54:54;;;;;;;4.15;1.50;;;;;;;-0.16;88.15;101874.75;5053697;28;20424;-81
2022/01/06 08:57:24;;;;;;;2.97;1.52;;;;;;;-0.10;88.44;101875.81;5053970;28;20041;-81
2022/01/06 08:59:49;;;;;;;2.40;1.45;;;;;;;-0.06;88.49;101878.59;5053024;28;20021;-81
2022/01/06 09:02:14;;;;;;;1.77;1.42;;;;;;;-0.02;88.35;101885.56;5052802;28;20036;-81
2022/01/06 09:04:39;;;;;;;3.17;1.45;;;;;;;0.04;88.00;101889.22;5053262;28;20024;-83
2022/01/06 09:07:05;;;;;;;1.30;1.20;;;;;;;0.09;88.16;101892.84;5052660;28;20032;-79
2022/01/06 09:09:30;;;;;;;2.55;1.40;;;;;;;0.12;88.33;101891.28;5053535;28;20029;-81
2022/01/06 09:11:56;;;;;;;1.63;1.52;;;;;;;0.20;88.35;101898.44;5053133;28;20449;-82
2022/01/06 09:14:24;;;;;;;2.25;1.67;;;;;;;0.21;88.40;101897.63;5052458;28;20029;-82
2022/01/06 09:16:51;;;;;;;1.65;1.48;;;;;;;0.31;88.52;101897.22;5059648;22;20111;-82
2022/01/06 09:19:16;;;;;;;1.55;1.40;;;;;;;0.35;88.36;101896.53;5053514;28;20025;-82
2022/01/06 09:21:43;;;;;;;1.50;1.40;;;;;;;0.44;88.19;101906.28;5052571;28;20103;-82
2022/01/06 09:24:09;;;;;;;3.63;1.50;;;;;;;0.51;88.67;101903.19;5053458;28;20425;-82
2022/01/06 09:26:35;;;;;;;2.43;1.60;;;;;;;0.58;88.42;101906.88;5052557;28;20429;-81
2022/01/06 09:29:06;;;;;;;4.00;1.70;;;;;;;0.64;88.93;101903.72;5052865;28;20063;-82
2022/01/06 09:31:34;;;;;;;3.42;1.80;;;;;;;0.71;89.31;101905.75;5052894;28;20031;-81
2022/01/06 09:34:00;;;;;;;3.35;1.70;;;;;;;0.80;88.70;101912.91;5052109;28;20024;-82
2022/01/06 09:36:29;;;;;;;3.40;1.90;;;;;;;0.88;88.94;101914.97;5053137;28;20025;-82
2022/01/06 09:38:55;;;;;;;2.65;1.70;;;;;;;0.98;88.39;101915.34;5052754;28;20025;-83
2022/01/06 09:41:22;;;;;;;2.55;1.80;;;;;;;1.05;88.53;101917.38;5052433;28;20029;-82
2022/01/06 09:43:51;;;;;;;3.08;1.70;;;;;;;1.13;88.35;101920.22;5052821;28;20361;-83
2022/01/06 09:46:17;;;;;;;3.25;1.73;;;;;;;1.21;88.44;101917.16;5052896;28;20029;-83
2022/01/06 09:48:42;;;;;;;2.72;1.80;;;;;;;1.26;87.80;101916.50;5051920;28;20025;-82
2022/01/06 09:51:09;;;;;;;2.15;1.73;;;;;;;1.35;88.19;101922.81;5052906;28;20055;-82
2022/01/06 09:53:34;;;;;;;1.70;1.60;;;;;;;1.45;88.03;101928.34;5052850;28;20492;-83
2022/01/06 09:55:59;;;;;;;2.42;1.80;;;;;;;1.52;87.75;101931.19;5052000;28;20028;-83
2022/01/06 09:58:46;;;;;;;4.18;2.28;;;;;;;1.60;88.45;101928.91;5052976;28;20049;-83
2022/01/06 10:01:17;;;;;;;3.17;1.70;;;;;;;1.68;88.25;101929.22;5052669;28;20050;-82
2022/01/06 10:03:50;;;;;;;2.97;1.80;;;;;;;1.72;88.00;101920.88;5051566;28;20045;-83
2022/01/06 10:06:27;;;;;;;1.80;1.67;;;;;;;1.82;88.10;101916.94;5052626;28;20484;-82
2022/01/06 10:09:02;;;;;;;2.95;2.10;;;;;;;1.92;87.59;101924.16;5051970;28;20082;-83
2022/01/06 10:11:44;;;;;;;2.20;1.90;;;;;;;1.95;88.03;101916.59;5034729;28;20052;-86
2022/01/06 10:14:16;;;;;;;2.15;1.83;;;;;;;1.99;88.08;101918.47;5052613;28;20428;-86
2022/01/06 10:16:58;;;;;;;2.95;1.80;;;;;;;2.09;87.87;101932.47;5051635;28;20480;-85
2022/01/06 10:19:23;;;;;;;2.00;1.77;;;;;;;2.16;87.98;101924.22;5052978;28;20032;-85
2022/01/06 10:21:56;;;;;;;3.08;1.50;;;;;;;2.25;88.10;101928.78;5052315;28;20071;-85
2022/01/06 10:24:42;;;;;;;4.60;2.10;;;;;;;2.31;88.15;101923.91;5051658;28;20489;-85
2022/01/06 10:27:09;;;;;;;3.55;2.00;;;;;;;2.40;87.97;101922.47;5054569;28;20425;-86
2022/01/06 10:29:51;;;;;;;2.00;1.70;;;;;;;2.43;88.30;101910.66;5056517;28;20017;-86
2022/01/06 10:32:25;;;;;;;2.53;1.70;;;;;;;2.50;88.18;101903.19;5056429;28;20071;-85
2022/01/06 10:35:08;;;;;;;1.98;1.55;;;;;;;2.60;87.92;101903.56;5056373;28;20079;-86
2022/01/06 10:37:40;;;;;;;1.48;1.38;;;;;;;2.69;88.15;101914.97;5055844;28;20025;-86
2022/01/06 10:40:10;;;;;;;2.55;1.77;;;;;;;2.80;88.12;101917.88;5056727;28;20028;-86
2022/01/06 10:42:45;;;;;;;4.20;1.70;;;;;;;2.87;88.40;101909.59;5056221;28;20485;-86
2022/01/06 10:45:19;;;;;;;2.50;1.90;;;;;;;2.90;87.71;101912.25;5055671;28;20028;-86
2022/01/06 10:47:47;;;;;;;2.55;1.90;;;;;;;2.92;87.41;101913.16;5056190;28;20213;-86
2022/01/06 10:50:24;;;;;;;4.40;2.10;;;;;;;2.96;87.66;101902.19;5053263;28;20132;-86
2022/01/06 10:52:52;;;;;;;3.13;1.90;;;;;;;2.99;87.70;101909.97;5046471;28;20489;-86
2022/01/06 10:55:35;;;;;;;2.22;1.85;;;;;;;2.96;87.78;101903.88;5049567;28;20378;-86
2022/01/06 10:58:29;;;;;;;4.10;1.95;;;;;;;3.04;87.88;101908.44;5050443;28;20021;-85
2022/01/06 11:01:04;;;;;;;2.63;1.88;;;;;;;3.13;87.96;101902.75;5041920;28;20547;-86
2022/01/06 11:03:36;;;;;;;5.30;2.20;;;;;;;3.28;87.87;101904.03;5055626;28;20393;-82
2022/01/06 11:06:03;;;;;;;4.63;2.10;;;;;;;3.41;87.79;101901.06;5053586;28;20029;-86
2022/01/06 11:11:28;;;;;;;5.15;2.30;;;;;;;3.56;87.75;101900.66;5055569;28;20365;-87
2022/01/06 11:14:02;;;;;;;6.38;2.60;;;;;;;3.63;86.80;101896.56;5053028;28;20112;-86
2022/01/06 11:16:28;;;;;;;6.30;2.50;;;;;;;3.69;86.99;101889.94;5055550;28;20032;-86
2022/01/06 11:18:56;;;;;;;7.45;2.63;;;;;;;3.77;86.36;101899.59;5055321;28;20104;-86
2022/01/06 11:21:47;;;;;;;7.95;2.60;;;;;;;3.78;86.78;101889.34;5055072;28;20056;-86
2022/01/06 11:24:35;;;;;;;5.13;2.50;;;;;;;3.85;86.32;101896.41;5054647;28;20021;-86
2022/01/06 11:27:02;;;;;;;4.90;2.60;;;;;;;3.93;86.29;101899.19;5054172;28;20033;-86
2022/01/06 11:29:48;;;;;;;;;;;;;;;3.98;86.44;101895.06;5056013;28;20028;-87
2022/01/06 11:32:17;;;;;;;6.43;2.50;;;;;;;3.99;86.11;101890.78;5055480;28;19913;-86
2022/01/06 11:34:44;;;;;;;6.00;2.30;;;;;;;4.07;86.40;101897.00;5055051;28;20029;-87
2022/01/06 11:37:15;;;;;;;4.35;2.40;;;;;;;4.16;86.48;101896.41;5079764;22;20519;-80
2022/01/06 11:39:43;;;;;;;4.97;2.30;;;;;;;4.21;86.08;101891.41;5054092;28;20032;-87
2022/01/06 11:42:52;;;;;;;6.38;2.40;;;;;;;4.21;85.61;101887.16;5050812;28;20175;-86
2022/01/06 11:46:00;;;;;;;4.68;2.10;;;;;;;4.23;85.83;101887.19;5049107;28;20105;-86
2022/01/06 11:48:40;;;;;;;;;;;;;;;;;;;;;
2022/01/06 11:54:48;;;;;;;7.50;2.60;;;;;;;4.36;84.29;101899.53;4973546;28;20451;-87